DUB weather

Dublin Airport
Dublin, County Dublin, Ireland

Public forecast

Using degrees Celsius for public forecast. Weather courtesy of forecast.io.

METAR (pilot weather report)

Retrieved 2019/02/17 13:30 UTC (0 seconds ago):

EIDW 171330Z 21019G31KT 170V250 9999 SCT027 11/03 Q1004 NOSIG

TAF (pilot weather forecast)

Retrieved 2019/02/17 12:11 UTC (1 hour ago):

TAF EIDW 171100Z 1712/1812 20012KT 9999 FEW020 SCT040 TEMPO 1712/1802 22018G30KT PROB40 TEMPO 1712/1721 -SHRA SCT018CB PROB40 TEMPO 1717/1801 22020G35KT BECMG 1810/1812 24015KT